sensor_id;sensor_type;location;lat;lon;timestamp;P1;durP1;ratioP1;P2;durP2;ratioP2
53207;SDS011;39093;52.788;6.940;2024-01-07T00:00:08;28.20;;;19.90;;
53207;SDS011;39093;52.788;6.940;2024-01-07T00:02:35;27.08;;;19.25;;
53207;SDS011;39093;52.788;6.940;2024-01-07T00:05:03;26.13;;;18.20;;
53207;SDS011;39093;52.788;6.940;2024-01-07T00:07:31;24.52;;;17.65;;
53207;SDS011;39093;52.788;6.940;2024-01-07T00:09:58;26.10;;;17.42;;
53207;SDS011;39093;52.788;6.940;2024-01-07T00:12:25;23.45;;;16.88;;
53207;SDS011;39093;52.788;6.940;2024-01-07T00:14:52;24.48;;;17.65;;
53207;SDS011;39093;52.788;6.940;2024-01-07T00:17:19;24.42;;;16.70;;
53207;SDS011;39093;52.788;6.940;2024-01-07T00:19:46;24.42;;;16.92;;
53207;SDS011;39093;52.788;6.940;2024-01-07T00:22:13;23.88;;;17.15;;
53207;SDS011;39093;52.788;6.940;2024-01-07T00:24:40;22.90;;;15.18;;
53207;SDS011;39093;52.788;6.940;2024-01-07T00:27:07;23.00;;;16.13;;
53207;SDS011;39093;52.788;6.940;2024-01-07T00:29:35;22.08;;;14.88;;
53207;SDS011;39093;52.788;6.940;2024-01-07T00:32:02;20.13;;;13.65;;
53207;SDS011;39093;52.788;6.940;2024-01-07T00:34:29;20.48;;;13.88;;
53207;SDS011;39093;52.788;6.940;2024-01-07T00:36:56;19.70;;;13.20;;
53207;SDS011;39093;52.788;6.940;2024-01-07T00:39:23;16.70;;;12.88;;
53207;SDS011;39093;52.788;6.940;2024-01-07T00:41:50;18.45;;;12.32;;
53207;SDS011;39093;52.788;6.940;2024-01-07T00:44:17;21.63;;;12.55;;
53207;SDS011;39093;52.788;6.940;2024-01-07T00:46:44;14.57;;;11.45;;
53207;SDS011;39093;52.788;6.940;2024-01-07T00:49:14;18.70;;;10.25;;
53207;SDS011;39093;52.788;6.940;2024-01-07T00:51:42;18.77;;;12.52;;
53207;SDS011;39093;52.788;6.940;2024-01-07T00:54:09;20.15;;;11.65;;
53207;SDS011;39093;52.788;6.940;2024-01-07T00:56:36;19.42;;;12.77;;
53207;SDS011;39093;52.788;6.940;2024-01-07T00:59:02;16.13;;;11.68;;
53207;SDS011;39093;52.788;6.940;2024-01-07T01:01:29;23.08;;;12.23;;
53207;SDS011;39093;52.788;6.940;2024-01-07T01:03:57;20.17;;;12.80;;
53207;SDS011;39093;52.788;6.940;2024-01-07T01:06:24;19.85;;;13.38;;
53207;SDS011;39093;52.788;6.940;2024-01-07T01:08:51;18.67;;;12.32;;
53207;SDS011;39093;52.788;6.940;2024-01-07T01:11:18;20.15;;;13.60;;
53207;SDS011;39093;52.788;6.940;2024-01-07T01:13:45;20.73;;;13.20;;
53207;SDS011;39093;52.788;6.940;2024-01-07T01:16:12;18.25;;;12.85;;
53207;SDS011;39093;52.788;6.940;2024-01-07T01:18:39;20.75;;;13.90;;
53207;SDS011;39093;52.788;6.940;2024-01-07T01:21:06;19.20;;;12.85;;
53207;SDS011;39093;52.788;6.940;2024-01-07T01:23:34;20.15;;;12.98;;
53207;SDS011;39093;52.788;6.940;2024-01-07T01:26:01;21.00;;;13.02;;
53207;SDS011;39093;52.788;6.940;2024-01-07T01:28:28;16.17;;;12.90;;
53207;SDS011;39093;52.788;6.940;2024-01-07T01:30:55;18.80;;;13.18;;
53207;SDS011;39093;52.788;6.940;2024-01-07T01:33:22;20.02;;;13.80;;
53207;SDS011;39093;52.788;6.940;2024-01-07T01:35:49;20.85;;;14.23;;
53207;SDS011;39093;52.788;6.940;2024-01-07T01:38:16;20.55;;;14.27;;
53207;SDS011;39093;52.788;6.940;2024-01-07T01:40:43;21.30;;;13.52;;
53207;SDS011;39093;52.788;6.940;2024-01-07T01:43:10;17.70;;;13.20;;
53207;SDS011;39093;52.788;6.940;2024-01-07T01:45:37;18.25;;;13.68;;
53207;SDS011;39093;52.788;6.940;2024-01-07T01:48:04;17.13;;;13.70;;
53207;SDS011;39093;52.788;6.940;2024-01-07T01:50:32;17.55;;;13.98;;
53207;SDS011;39093;52.788;6.940;2024-01-07T01:52:59;23.65;;;14.38;;
53207;SDS011;39093;52.788;6.940;2024-01-07T01:55:26;17.00;;;13.25;;
53207;SDS011;39093;52.788;6.940;2024-01-07T01:57:53;21.15;;;14.15;;
53207;SDS011;39093;52.788;6.940;2024-01-07T02:00:22;17.65;;;12.88;;
53207;SDS011;39093;52.788;6.940;2024-01-07T02:02:49;20.80;;;14.63;;
53207;SDS011;39093;52.788;6.940;2024-01-07T02:05:16;18.33;;;13.25;;
53207;SDS011;39093;52.788;6.940;2024-01-07T02:07:43;18.15;;;12.85;;
53207;SDS011;39093;52.788;6.940;2024-01-07T02:10:13;19.40;;;13.35;;
53207;SDS011;39093;52.788;6.940;2024-01-07T02:12:40;21.85;;;13.18;;
53207;SDS011;39093;52.788;6.940;2024-01-07T02:15:07;16.10;;;10.82;;
53207;SDS011;39093;52.788;6.940;2024-01-07T02:17:34;18.70;;;12.70;;
53207;SDS011;39093;52.788;6.940;2024-01-07T02:20:01;19.35;;;12.95;;
53207;SDS011;39093;52.788;6.940;2024-01-07T02:22:28;18.27;;;12.55;;
53207;SDS011;39093;52.788;6.940;2024-01-07T02:24:55;20.00;;;12.15;;
53207;SDS011;39093;52.788;6.940;2024-01-07T02:27:22;16.02;;;11.88;;
53207;SDS011;39093;52.788;6.940;2024-01-07T02:29:49;17.85;;;11.95;;
53207;SDS011;39093;52.788;6.940;2024-01-07T02:32:16;13.68;;;10.93;;
53207;SDS011;39093;52.788;6.940;2024-01-07T02:34:43;14.93;;;11.07;;
53207;SDS011;39093;52.788;6.940;2024-01-07T02:37:11;17.65;;;10.70;;
53207;SDS011;39093;52.788;6.940;2024-01-07T02:39:38;15.85;;;10.35;;
53207;SDS011;39093;52.788;6.940;2024-01-07T02:42:05;14.93;;;10.98;;
53207;SDS011;39093;52.788;6.940;2024-01-07T02:44:32;15.45;;;11.40;;
53207;SDS011;39093;52.788;6.940;2024-01-07T02:46:59;17.13;;;11.15;;
53207;SDS011;39093;52.788;6.940;2024-01-07T02:49:26;15.45;;;11.48;;
53207;SDS011;39093;52.788;6.940;2024-01-07T02:51:54;16.50;;;11.30;;
53207;SDS011;39093;52.788;6.940;2024-01-07T02:54:21;15.50;;;11.38;;
53207;SDS011;39093;52.788;6.940;2024-01-07T02:56:51;15.85;;;11.18;;
53207;SDS011;39093;52.788;6.940;2024-01-07T02:59:21;20.23;;;12.10;;
53207;SDS011;39093;52.788;6.940;2024-01-07T03:01:48;15.55;;;10.38;;
53207;SDS011;39093;52.788;6.940;2024-01-07T03:04:15;15.80;;;11.50;;
53207;SDS011;39093;52.788;6.940;2024-01-07T03:06:43;15.40;;;10.82;;
53207;SDS011;39093;52.788;6.940;2024-01-07T03:09:10;14.55;;;9.85;;
53207;SDS011;39093;52.788;6.940;2024-01-07T03:11:40;18.75;;;11.40;;
53207;SDS011;39093;52.788;6.940;2024-01-07T03:14:09;18.15;;;11.07;;
53207;SDS011;39093;52.788;6.940;2024-01-07T03:16:36;14.90;;;10.95;;
53207;SDS011;39093;52.788;6.940;2024-01-07T03:19:03;17.00;;;10.40;;
53207;SDS011;39093;52.788;6.940;2024-01-07T03:21:31;15.20;;;10.98;;
53207;SDS011;39093;52.788;6.940;2024-01-07T03:23:58;19.73;;;11.48;;
53207;SDS011;39093;52.788;6.940;2024-01-07T03:26:25;16.17;;;10.93;;
53207;SDS011;39093;52.788;6.940;2024-01-07T03:28:56;15.27;;;11.75;;
53207;SDS011;39093;52.788;6.940;2024-01-07T03:31:26;17.67;;;11.18;;
53207;SDS011;39093;52.788;6.940;2024-01-07T03:33:53;14.93;;;10.85;;
53207;SDS011;39093;52.788;6.940;2024-01-07T03:36:20;14.93;;;10.77;;
53207;SDS011;39093;52.788;6.940;2024-01-07T03:38:48;19.13;;;11.30;;
53207;SDS011;39093;52.788;6.940;2024-01-07T03:41:18;14.50;;;10.48;;
53207;SDS011;39093;52.788;6.940;2024-01-07T03:43:49;17.80;;;11.48;;
53207;SDS011;39093;52.788;6.940;2024-01-07T03:46:16;14.18;;;10.70;;
53207;SDS011;39093;52.788;6.940;2024-01-07T03:48:43;13.57;;;10.23;;
53207;SDS011;39093;52.788;6.940;2024-01-07T03:51:11;13.07;;;10.00;;
53207;SDS011;39093;52.788;6.940;2024-01-07T03:53:38;15.40;;;10.38;;
53207;SDS011;39093;52.788;6.940;2024-01-07T03:56:05;12.82;;;9.27;;
53207;SDS011;39093;52.788;6.940;2024-01-07T03:58:32;19.88;;;11.18;;
53207;SDS011;39093;52.788;6.940;2024-01-07T04:01:00;16.90;;;10.77;;
53207;SDS011;39093;52.788;6.940;2024-01-07T04:03:28;16.10;;;11.05;;
53207;SDS011;39093;52.788;6.940;2024-01-07T04:05:55;13.45;;;10.60;;
53207;SDS011;39093;52.788;6.940;2024-01-07T04:08:22;13.15;;;9.77;;
53207;SDS011;39093;52.788;6.940;2024-01-07T04:10:49;11.98;;;9.75;;
53207;SDS011;39093;52.788;6.940;2024-01-07T04:13:16;12.60;;;9.85;;
53207;SDS011;39093;52.788;6.940;2024-01-07T04:15:45;15.50;;;10.65;;
53207;SDS011;39093;52.788;6.940;2024-01-07T04:18:12;18.92;;;11.25;;
53207;SDS011;39093;52.788;6.940;2024-01-07T04:20:39;15.55;;;10.82;;
53207;SDS011;39093;52.788;6.940;2024-01-07T04:23:06;15.57;;;9.60;;
53207;SDS011;39093;52.788;6.940;2024-01-07T04:25:33;13.43;;;10.57;;
53207;SDS011;39093;52.788;6.940;2024-01-07T04:28:00;17.80;;;11.70;;
53207;SDS011;39093;52.788;6.940;2024-01-07T04:30:27;16.55;;;11.27;;
53207;SDS011;39093;52.788;6.940;2024-01-07T04:32:54;17.35;;;11.13;;
53207;SDS011;39093;52.788;6.940;2024-01-07T04:35:21;15.95;;;9.27;;
53207;SDS011;39093;52.788;6.940;2024-01-07T04:37:48;14.73;;;11.52;;
53207;SDS011;39093;52.788;6.940;2024-01-07T04:40:15;13.93;;;10.50;;
53207;SDS011;39093;52.788;6.940;2024-01-07T04:42:42;17.95;;;11.70;;
53207;SDS011;39093;52.788;6.940;2024-01-07T04:45:09;14.18;;;9.93;;
53207;SDS011;39093;52.788;6.940;2024-01-07T04:47:36;17.73;;;10.07;;
53207;SDS011;39093;52.788;6.940;2024-01-07T04:50:03;17.02;;;9.10;;
53207;SDS011;39093;52.788;6.940;2024-01-07T04:52:31;12.48;;;8.60;;
53207;SDS011;39093;52.788;6.940;2024-01-07T04:54:58;11.23;;;7.35;;
53207;SDS011;39093;52.788;6.940;2024-01-07T04:57:25;13.45;;;8.50;;
53207;SDS011;39093;52.788;6.940;2024-01-07T04:59:52;14.20;;;8.65;;
53207;SDS011;39093;52.788;6.940;2024-01-07T05:02:19;14.15;;;8.20;;
53207;SDS011;39093;52.788;6.940;2024-01-07T05:04:47;12.82;;;8.40;;
53207;SDS011;39093;52.788;6.940;2024-01-07T05:07:14;9.45;;;7.13;;
53207;SDS011;39093;52.788;6.940;2024-01-07T05:09:41;13.50;;;8.75;;
53207;SDS011;39093;52.788;6.940;2024-01-07T05:12:08;12.77;;;7.80;;
53207;SDS011;39093;52.788;6.940;2024-01-07T05:14:34;13.68;;;9.70;;
53207;SDS011;39093;52.788;6.940;2024-01-07T05:17:03;14.82;;;9.40;;
53207;SDS011;39093;52.788;6.940;2024-01-07T05:19:30;14.57;;;8.00;;
53207;SDS011;39093;52.788;6.940;2024-01-07T05:21:58;13.73;;;8.07;;
53207;SDS011;39093;52.788;6.940;2024-01-07T05:24:25;13.32;;;8.13;;
53207;SDS011;39093;52.788;6.940;2024-01-07T05:26:52;12.35;;;8.20;;
53207;SDS011;39093;52.788;6.940;2024-01-07T05:29:19;9.10;;;7.47;;
53207;SDS011;39093;52.788;6.940;2024-01-07T05:31:46;13.65;;;7.97;;
53207;SDS011;39093;52.788;6.940;2024-01-07T05:34:13;11.98;;;7.05;;
53207;SDS011;39093;52.788;6.940;2024-01-07T05:36:41;9.25;;;6.63;;
53207;SDS011;39093;52.788;6.940;2024-01-07T05:39:08;11.35;;;6.60;;
53207;SDS011;39093;52.788;6.940;2024-01-07T05:41:36;8.82;;;6.47;;
53207;SDS011;39093;52.788;6.940;2024-01-07T05:44:06;13.40;;;6.72;;
53207;SDS011;39093;52.788;6.940;2024-01-07T05:46:34;11.52;;;6.18;;
53207;SDS011;39093;52.788;6.940;2024-01-07T05:49:04;7.40;;;5.03;;
53207;SDS011;39093;52.788;6.940;2024-01-07T05:51:31;7.35;;;4.88;;
53207;SDS011;39093;52.788;6.940;2024-01-07T05:53:58;7.03;;;4.82;;
53207;SDS011;39093;52.788;6.940;2024-01-07T05:56:25;16.65;;;4.60;;
53207;SDS011;39093;52.788;6.940;2024-01-07T05:58:52;6.13;;;4.13;;
53207;SDS011;39093;52.788;6.940;2024-01-07T06:01:19;7.95;;;4.72;;
53207;SDS011;39093;52.788;6.940;2024-01-07T06:03:47;5.57;;;4.22;;
53207;SDS011;39093;52.788;6.940;2024-01-07T06:06:14;8.10;;;4.50;;
53207;SDS011;39093;52.788;6.940;2024-01-07T06:08:42;5.47;;;3.58;;
53207;SDS011;39093;52.788;6.940;2024-01-07T06:11:09;5.65;;;3.50;;
53207;SDS011;39093;52.788;6.940;2024-01-07T06:13:38;8.18;;;4.47;;
53207;SDS011;39093;52.788;6.940;2024-01-07T06:16:05;6.43;;;3.60;;
53207;SDS011;39093;52.788;6.940;2024-01-07T06:18:32;7.93;;;4.00;;
53207;SDS011;39093;52.788;6.940;2024-01-07T06:21:03;10.75;;;4.15;;
53207;SDS011;39093;52.788;6.940;2024-01-07T06:23:32;4.25;;;3.05;;
53207;SDS011;39093;52.788;6.940;2024-01-07T06:25:59;6.75;;;3.08;;
53207;SDS011;39093;52.788;6.940;2024-01-07T06:28:29;5.82;;;3.15;;
53207;SDS011;39093;52.788;6.940;2024-01-07T06:30:56;6.28;;;3.22;;
53207;SDS011;39093;52.788;6.940;2024-01-07T06:33:26;4.18;;;2.97;;
53207;SDS011;39093;52.788;6.940;2024-01-07T06:35:53;11.35;;;4.20;;
53207;SDS011;39093;52.788;6.940;2024-01-07T06:38:20;6.03;;;2.90;;
53207;SDS011;39093;52.788;6.940;2024-01-07T06:40:47;6.53;;;3.22;;
53207;SDS011;39093;52.788;6.940;2024-01-07T06:43:14;4.50;;;2.80;;
53207;SDS011;39093;52.788;6.940;2024-01-07T06:45:41;4.95;;;2.70;;
53207;SDS011;39093;52.788;6.940;2024-01-07T06:48:09;5.55;;;2.50;;
53207;SDS011;39093;52.788;6.940;2024-01-07T06:50:37;3.28;;;2.40;;
53207;SDS011;39093;52.788;6.940;2024-01-07T06:53:03;4.82;;;2.90;;
53207;SDS011;39093;52.788;6.940;2024-01-07T06:55:30;4.32;;;2.67;;
53207;SDS011;39093;52.788;6.940;2024-01-07T06:57:57;8.10;;;2.72;;
53207;SDS011;39093;52.788;6.940;2024-01-07T07:00:24;5.93;;;2.70;;
53207;SDS011;39093;52.788;6.940;2024-01-07T07:02:52;4.15;;;2.60;;
53207;SDS011;39093;52.788;6.940;2024-01-07T07:05:19;7.03;;;2.80;;
53207;SDS011;39093;52.788;6.940;2024-01-07T07:07:46;4.72;;;2.70;;
53207;SDS011;39093;52.788;6.940;2024-01-07T07:10:13;5.97;;;2.75;;
53207;SDS011;39093;52.788;6.940;2024-01-07T07:12:40;4.20;;;2.50;;
53207;SDS011;39093;52.788;6.940;2024-01-07T07:15:07;4.97;;;2.75;;
53207;SDS011;39093;52.788;6.940;2024-01-07T07:17:36;4.00;;;2.55;;
53207;SDS011;39093;52.788;6.940;2024-01-07T07:20:05;3.53;;;2.30;;
53207;SDS011;39093;52.788;6.940;2024-01-07T07:22:32;3.80;;;2.28;;
53207;SDS011;39093;52.788;6.940;2024-01-07T07:24:59;7.15;;;2.63;;
53207;SDS011;39093;52.788;6.940;2024-01-07T07:27:28;6.63;;;2.47;;
53207;SDS011;39093;52.788;6.940;2024-01-07T07:29:55;3.78;;;2.47;;
53207;SDS011;39093;52.788;6.940;2024-01-07T07:32:22;4.03;;;2.90;;
53207;SDS011;39093;52.788;6.940;2024-01-07T07:34:48;5.57;;;2.22;;
53207;SDS011;39093;52.788;6.940;2024-01-07T07:37:15;4.18;;;2.58;;
53207;SDS011;39093;52.788;6.940;2024-01-07T07:39:46;6.75;;;2.42;;
53207;SDS011;39093;52.788;6.940;2024-01-07T07:42:16;4.60;;;2.55;;
53207;SDS011;39093;52.788;6.940;2024-01-07T07:44:42;3.33;;;2.03;;
53207;SDS011;39093;52.788;6.940;2024-01-07T07:47:09;3.60;;;2.88;;
53207;SDS011;39093;52.788;6.940;2024-01-07T07:49:38;4.28;;;2.47;;
53207;SDS011;39093;52.788;6.940;2024-01-07T07:52:07;3.35;;;2.33;;
53207;SDS011;39093;52.788;6.940;2024-01-07T07:54:37;3.55;;;2.65;;
53207;SDS011;39093;52.788;6.940;2024-01-07T07:57:04;5.03;;;2.55;;
53207;SDS011;39093;52.788;6.940;2024-01-07T07:59:31;4.97;;;2.42;;
53207;SDS011;39093;52.788;6.940;2024-01-07T08:01:58;3.45;;;1.83;;
53207;SDS011;39093;52.788;6.940;2024-01-07T08:04:26;4.55;;;1.95;;
53207;SDS011;39093;52.788;6.940;2024-01-07T08:06:53;3.33;;;2.17;;
53207;SDS011;39093;52.788;6.940;2024-01-07T08:09:22;4.22;;;1.98;;
53207;SDS011;39093;52.788;6.940;2024-01-07T08:11:51;3.53;;;2.28;;
53207;SDS011;39093;52.788;6.940;2024-01-07T08:14:18;2.80;;;2.05;;
53207;SDS011;39093;52.788;6.940;2024-01-07T08:16:46;8.73;;;4.40;;
53207;SDS011;39093;52.788;6.940;2024-01-07T08:19:13;6.03;;;2.85;;
53207;SDS011;39093;52.788;6.940;2024-01-07T08:21:40;3.42;;;1.92;;
53207;SDS011;39093;52.788;6.940;2024-01-07T08:24:07;3.47;;;1.88;;
53207;SDS011;39093;52.788;6.940;2024-01-07T08:26:36;3.95;;;1.95;;
53207;SDS011;39093;52.788;6.940;2024-01-07T08:29:03;3.65;;;1.85;;
53207;SDS011;39093;52.788;6.940;2024-01-07T08:31:31;5.70;;;1.90;;
53207;SDS011;39093;52.788;6.940;2024-01-07T08:33:58;7.65;;;2.28;;
53207;SDS011;39093;52.788;6.940;2024-01-07T08:36:26;3.63;;;2.20;;
53207;SDS011;39093;52.788;6.940;2024-01-07T08:38:53;3.65;;;2.00;;
53207;SDS011;39093;52.788;6.940;2024-01-07T08:41:20;3.20;;;2.33;;
53207;SDS011;39093;52.788;6.940;2024-01-07T08:43:47;3.35;;;2.10;;
53207;SDS011;39093;52.788;6.940;2024-01-07T08:46:14;3.40;;;1.88;;
53207;SDS011;39093;52.788;6.940;2024-01-07T08:48:42;2.67;;;1.60;;
53207;SDS011;39093;52.788;6.940;2024-01-07T08:51:09;4.53;;;2.17;;
53207;SDS011;39093;52.788;6.940;2024-01-07T08:53:36;4.30;;;2.20;;
53207;SDS011;39093;52.788;6.940;2024-01-07T08:56:03;5.65;;;2.60;;
53207;SDS011;39093;52.788;6.940;2024-01-07T08:58:30;3.35;;;2.03;;
53207;SDS011;39093;52.788;6.940;2024-01-07T09:00:57;3.63;;;3.00;;
53207;SDS011;39093;52.788;6.940;2024-01-07T09:03:24;4.38;;;2.40;;
53207;SDS011;39093;52.788;6.940;2024-01-07T09:05:52;3.17;;;1.73;;
53207;SDS011;39093;52.788;6.940;2024-01-07T09:08:19;4.43;;;2.17;;
53207;SDS011;39093;52.788;6.940;2024-01-07T09:10:46;6.85;;;2.45;;
53207;SDS011;39093;52.788;6.940;2024-01-07T09:13:14;2.53;;;2.08;;
53207;SDS011;39093;52.788;6.940;2024-01-07T09:15:41;6.03;;;1.85;;
53207;SDS011;39093;52.788;6.940;2024-01-07T09:18:08;2.33;;;1.73;;
53207;SDS011;39093;52.788;6.940;2024-01-07T09:20:36;4.45;;;2.00;;
53207;SDS011;39093;52.788;6.940;2024-01-07T09:23:03;2.78;;;1.92;;
53207;SDS011;39093;52.788;6.940;2024-01-07T09:25:30;3.75;;;1.67;;
53207;SDS011;39093;52.788;6.940;2024-01-07T09:27:57;3.97;;;1.95;;
53207;SDS011;39093;52.788;6.940;2024-01-07T09:30:25;4.90;;;2.08;;
53207;SDS011;39093;52.788;6.940;2024-01-07T09:32:52;5.30;;;2.00;;
53207;SDS011;39093;52.788;6.940;2024-01-07T09:35:19;3.55;;;2.15;;
53207;SDS011;39093;52.788;6.940;2024-01-07T09:37:46;3.15;;;1.80;;
53207;SDS011;39093;52.788;6.940;2024-01-07T09:40:16;4.95;;;2.42;;
53207;SDS011;39093;52.788;6.940;2024-01-07T09:42:45;4.47;;;1.95;;
53207;SDS011;39093;52.788;6.940;2024-01-07T09:45:13;6.25;;;2.05;;
53207;SDS011;39093;52.788;6.940;2024-01-07T09:47:41;3.42;;;2.08;;
53207;SDS011;39093;52.788;6.940;2024-01-07T09:50:11;5.70;;;1.98;;
53207;SDS011;39093;52.788;6.940;2024-01-07T09:52:42;4.13;;;2.28;;
53207;SDS011;39093;52.788;6.940;2024-01-07T09:57:46;3.10;;;1.85;;
53207;SDS011;39093;52.788;6.940;2024-01-07T10:00:13;2.58;;;2.10;;
53207;SDS011;39093;52.788;6.940;2024-01-07T10:02:40;3.80;;;1.52;;
53207;SDS011;39093;52.788;6.940;2024-01-07T10:05:08;5.40;;;2.03;;
53207;SDS011;39093;52.788;6.940;2024-01-07T10:07:34;3.25;;;1.90;;
53207;SDS011;39093;52.788;6.940;2024-01-07T10:10:14;4.43;;;2.00;;
53207;SDS011;39093;52.788;6.940;2024-01-07T10:12:45;3.55;;;1.63;;
53207;SDS011;39093;52.788;6.940;2024-01-07T10:15:13;3.97;;;1.92;;
53207;SDS011;39093;52.788;6.940;2024-01-07T10:17:44;2.47;;;1.73;;
53207;SDS011;39093;52.788;6.940;2024-01-07T10:20:12;3.10;;;1.60;;
53207;SDS011;39093;52.788;6.940;2024-01-07T10:22:39;5.25;;;1.42;;
53207;SDS011;39093;52.788;6.940;2024-01-07T10:25:06;3.08;;;1.83;;
53207;SDS011;39093;52.788;6.940;2024-01-07T10:27:34;4.10;;;1.55;;
53207;SDS011;39093;52.788;6.940;2024-01-07T10:30:02;2.00;;;1.30;;
53207;SDS011;39093;52.788;6.940;2024-01-07T10:32:30;2.72;;;1.20;;
53207;SDS011;39093;52.788;6.940;2024-01-07T10:34:58;3.90;;;1.30;;
53207;SDS011;39093;52.788;6.940;2024-01-07T10:37:30;2.97;;;1.42;;
53207;SDS011;39093;52.788;6.940;2024-01-07T10:39:58;3.83;;;1.50;;
53207;SDS011;39093;52.788;6.940;2024-01-07T10:42:30;1.77;;;1.27;;
53207;SDS011;39093;52.788;6.940;2024-01-07T10:45:02;3.28;;;1.70;;
53207;SDS011;39093;52.788;6.940;2024-01-07T10:47:29;3.55;;;1.30;;
53207;SDS011;39093;52.788;6.940;2024-01-07T10:49:58;2.13;;;1.20;;
53207;SDS011;39093;52.788;6.940;2024-01-07T10:52:28;2.88;;;1.70;;
53207;SDS011;39093;52.788;6.940;2024-01-07T10:54:56;3.97;;;1.50;;
53207;SDS011;39093;52.788;6.940;2024-01-07T10:57:35;2.60;;;1.65;;
53207;SDS011;39093;52.788;6.940;2024-01-07T11:00:12;3.75;;;1.70;;
53207;SDS011;39093;52.788;6.940;2024-01-07T11:05:30;3.70;;;1.65;;
53207;SDS011;39093;52.788;6.940;2024-01-07T11:08:05;5.72;;;1.80;;
53207;SDS011;39093;52.788;6.940;2024-01-07T11:10:47;3.25;;;1.70;;
53207;SDS011;39093;52.788;6.940;2024-01-07T11:13:31;5.68;;;1.80;;
53207;SDS011;39093;52.788;6.940;2024-01-07T11:18:40;2.08;;;1.48;;
53207;SDS011;39093;52.788;6.940;2024-01-07T11:21:20;1.85;;;1.48;;
53207;SDS011;39093;52.788;6.940;2024-01-07T11:23:48;3.38;;;1.50;;
53207;SDS011;39093;52.788;6.940;2024-01-07T11:26:14;6.68;;;1.88;;
53207;SDS011;39093;52.788;6.940;2024-01-07T11:28:52;4.75;;;1.85;;
53207;SDS011;39093;52.788;6.940;2024-01-07T11:31:21;4.40;;;1.67;;
53207;SDS011;39093;52.788;6.940;2024-01-07T11:34:08;1.50;;;1.38;;
53207;SDS011;39093;52.788;6.940;2024-01-07T11:36:35;4.85;;;2.47;;
53207;SDS011;39093;52.788;6.940;2024-01-07T11:39:04;4.93;;;2.83;;
53207;SDS011;39093;52.788;6.940;2024-01-07T11:41:36;3.53;;;2.10;;
53207;SDS011;39093;52.788;6.940;2024-01-07T11:44:05;2.65;;;1.73;;
53207;SDS011;39093;52.788;6.940;2024-01-07T11:46:34;6.68;;;1.95;;
53207;SDS011;39093;52.788;6.940;2024-01-07T11:49:04;2.95;;;1.83;;
53207;SDS011;39093;52.788;6.940;2024-01-07T11:51:32;2.83;;;1.70;;
53207;SDS011;39093;52.788;6.940;2024-01-07T11:53:59;2.92;;;1.75;;
53207;SDS011;39093;52.788;6.940;2024-01-07T11:56:27;4.00;;;1.73;;
53207;SDS011;39093;52.788;6.940;2024-01-07T11:58:55;4.60;;;2.35;;
53207;SDS011;39093;52.788;6.940;2024-01-07T12:01:26;4.05;;;1.92;;
53207;SDS011;39093;52.788;6.940;2024-01-07T12:03:53;3.78;;;2.25;;
53207;SDS011;39093;52.788;6.940;2024-01-07T12:06:21;4.00;;;2.05;;
53207;SDS011;39093;52.788;6.940;2024-01-07T12:08:48;5.28;;;3.03;;
53207;SDS011;39093;52.788;6.940;2024-01-07T12:11:15;3.53;;;2.47;;
53207;SDS011;39093;52.788;6.940;2024-01-07T12:13:43;4.57;;;2.75;;
53207;SDS011;39093;52.788;6.940;2024-01-07T12:16:10;6.47;;;2.70;;
53207;SDS011;39093;52.788;6.940;2024-01-07T12:18:38;3.63;;;2.05;;
53207;SDS011;39093;52.788;6.940;2024-01-07T12:21:06;8.90;;;2.70;;
53207;SDS011;39093;52.788;6.940;2024-01-07T12:23:36;5.20;;;2.33;;
53207;SDS011;39093;52.788;6.940;2024-01-07T12:26:09;3.47;;;2.30;;
53207;SDS011;39093;52.788;6.940;2024-01-07T12:28:37;5.50;;;2.47;;
53207;SDS011;39093;52.788;6.940;2024-01-07T12:31:04;6.72;;;2.58;;
53207;SDS011;39093;52.788;6.940;2024-01-07T12:33:32;2.83;;;2.15;;
53207;SDS011;39093;52.788;6.940;2024-01-07T12:36:00;3.97;;;2.55;;
53207;SDS011;39093;52.788;6.940;2024-01-07T12:38:28;3.55;;;2.65;;
53207;SDS011;39093;52.788;6.940;2024-01-07T12:40:55;7.70;;;3.65;;
53207;SDS011;39093;52.788;6.940;2024-01-07T12:43:22;11.77;;;5.18;;
53207;SDS011;39093;52.788;6.940;2024-01-07T12:45:49;6.68;;;4.05;;
53207;SDS011;39093;52.788;6.940;2024-01-07T12:48:16;8.80;;;4.28;;
53207;SDS011;39093;52.788;6.940;2024-01-07T12:50:43;9.32;;;4.10;;
53207;SDS011;39093;52.788;6.940;2024-01-07T12:53:10;5.60;;;3.45;;
53207;SDS011;39093;52.788;6.940;2024-01-07T12:55:37;8.90;;;4.82;;
53207;SDS011;39093;52.788;6.940;2024-01-07T12:58:04;7.32;;;3.92;;
53207;SDS011;39093;52.788;6.940;2024-01-07T13:00:32;6.07;;;4.15;;
53207;SDS011;39093;52.788;6.940;2024-01-07T13:03:00;6.82;;;2.88;;
53207;SDS011;39093;52.788;6.940;2024-01-07T13:05:27;4.15;;;2.55;;
53207;SDS011;39093;52.788;6.940;2024-01-07T13:07:55;6.03;;;3.72;;
53207;SDS011;39093;52.788;6.940;2024-01-07T13:10:22;9.77;;;3.33;;
53207;SDS011;39093;52.788;6.940;2024-01-07T13:12:50;6.28;;;2.95;;
53207;SDS011;39093;52.788;6.940;2024-01-07T13:15:26;5.45;;;2.60;;
53207;SDS011;39093;52.788;6.940;2024-01-07T13:17:53;7.43;;;3.88;;
53207;SDS011;39093;52.788;6.940;2024-01-07T13:20:20;6.40;;;3.55;;
53207;SDS011;39093;52.788;6.940;2024-01-07T13:22:46;4.10;;;3.03;;
53207;SDS011;39093;52.788;6.940;2024-01-07T13:25:14;6.93;;;3.80;;
53207;SDS011;39093;52.788;6.940;2024-01-07T13:27:45;7.88;;;4.28;;
53207;SDS011;39093;52.788;6.940;2024-01-07T13:30:12;4.95;;;3.65;;
53207;SDS011;39093;52.788;6.940;2024-01-07T13:32:39;4.95;;;3.55;;
53207;SDS011;39093;52.788;6.940;2024-01-07T13:35:06;6.97;;;3.78;;
53207;SDS011;39093;52.788;6.940;2024-01-07T13:37:37;9.18;;;3.63;;
53207;SDS011;39093;52.788;6.940;2024-01-07T13:40:07;11.45;;;3.72;;
53207;SDS011;39093;52.788;6.940;2024-01-07T13:42:37;4.63;;;3.60;;
53207;SDS011;39093;52.788;6.940;2024-01-07T13:45:04;6.47;;;3.47;;
53207;SDS011;39093;52.788;6.940;2024-01-07T13:47:31;7.88;;;3.80;;
53207;SDS011;39093;52.788;6.940;2024-01-07T13:49:59;11.25;;;4.05;;
53207;SDS011;39093;52.788;6.940;2024-01-07T13:52:26;11.10;;;4.72;;
53207;SDS011;39093;52.788;6.940;2024-01-07T13:54:56;6.22;;;4.40;;
53207;SDS011;39093;52.788;6.940;2024-01-07T13:57:24;5.30;;;3.72;;
53207;SDS011;39093;52.788;6.940;2024-01-07T13:59:52;9.45;;;4.25;;
53207;SDS011;39093;52.788;6.940;2024-01-07T14:02:19;10.30;;;4.70;;
53207;SDS011;39093;52.788;6.940;2024-01-07T14:04:48;5.43;;;4.00;;
53207;SDS011;39093;52.788;6.940;2024-01-07T14:07:17;8.65;;;4.22;;
53207;SDS011;39093;52.788;6.940;2024-01-07T14:09:46;9.73;;;5.63;;
53207;SDS011;39093;52.788;6.940;2024-01-07T14:12:13;8.48;;;4.18;;
53207;SDS011;39093;52.788;6.940;2024-01-07T14:14:40;6.63;;;3.95;;
53207;SDS011;39093;52.788;6.940;2024-01-07T14:17:07;5.82;;;3.92;;
53207;SDS011;39093;52.788;6.940;2024-01-07T14:19:34;8.43;;;3.85;;
53207;SDS011;39093;52.788;6.940;2024-01-07T14:22:01;12.93;;;4.88;;
53207;SDS011;39093;52.788;6.940;2024-01-07T14:24:28;5.53;;;4.05;;
53207;SDS011;39093;52.788;6.940;2024-01-07T14:26:55;7.88;;;3.95;;
53207;SDS011;39093;52.788;6.940;2024-01-07T14:29:24;19.67;;;9.57;;
53207;SDS011;39093;52.788;6.940;2024-01-07T14:31:51;17.95;;;9.10;;
53207;SDS011;39093;52.788;6.940;2024-01-07T14:34:18;35.30;;;14.40;;
53207;SDS011;39093;52.788;6.940;2024-01-07T14:36:46;14.95;;;8.15;;
53207;SDS011;39093;52.788;6.940;2024-01-07T14:39:14;11.10;;;5.35;;
53207;SDS011;39093;52.788;6.940;2024-01-07T14:41:41;9.10;;;4.75;;
53207;SDS011;39093;52.788;6.940;2024-01-07T14:44:10;6.97;;;4.78;;
53207;SDS011;39093;52.788;6.940;2024-01-07T14:46:40;8.98;;;5.28;;
53207;SDS011;39093;52.788;6.940;2024-01-07T14:49:07;12.45;;;6.00;;